Aérodrome :
LOGIN :

S'inscrire | Disclaimer

   EN    FR    IT 

 










Légende :    VFR   VFR Marginal   IFR   IFR Intensif   IFR Très Intensif
Visi : 
Plafond : 
>= 8 km
>= 3000ft
5 à 8 km
1000 à 3000 ft
1500m à 5 km
500 à 1000 ft
800 à 1500m
200 à 500 ft
< 800m
< 200 ft
Symboles :   Orages  Brouillard  Fortes neiges  Fortes précipitations  Vent > 20 kt
SIGMETs :   Divers  Orages  Givrage  Turbulence  Onde Orograph.  Cendres Volcan.







- Altitude de l'aérodrome : 1161 ft
- Code IATA : RJL


LELO - Logroño-Agoncillo

DERNIER METAR :
  • 190000Z AUTO 24003KT 210V280 9999 FEW037/// 16/13 Q1016

METARs EXPIRÉS :
  • 182330Z AUTO 27004KT 9999 BKN034/// 16/13 Q1016
  • 182300Z AUTO 28004KT 9999 BKN033/// OVC069/// 16/13 Q1016
  • 182230Z AUTO 28004KT 9999 FEW035/// BKN070/// 16/13 Q1016
  • 182200Z AUTO 27002KT CAVOK 16/13 Q1016
  • 182130Z AUTO 27003KT CAVOK 16/13 Q1016

TAF TAF LELO
Valide du 18 à 18h jusqu'au 19 à 03h UTC


181700Z 1818/1903 36008KT 9999 BKN040
PROB30
TEMPO 1818/1903 RA
Pas de NOTAMs connus pour ce terrain.



MET'MAP, la Météo Aéronautique d'un coup d'oeil ! - Copyright ORBIFLY Décembre 2007 - Disclaimer

ORBIFLY MET'MAP TEAM :

Programmation & Développement : Alexandra Zaïnal
Conception & Développement : Baudouin d'Aumeries
Co-Programmation & Développement : Marc-Olivier Méhu
Soutien technique & logistique : Manuel Goepfert

Contact : metmap@orbifly.com




SOURCES & CREDITS :

   NOAA